Time;durP1;ratioP1;P1;durP2;ratioP2;P2;SDS_P1;SDS_P2;PMS_P1;PMS_P2;Temp;Humidity;BMP_temperature;BMP_pressure;BME280_temperature;BME280_humidity;BME280_pressure;Samples;Min_cycle;Max_cycle;Signal;HPM_P1;HPM_P2
2022/12/13 00:01:09;;;;;;;;;;;-0.30;82.80;;;;;;5094258;28;19908;-34
2022/12/13 00:03:35;;;;;;;;;;;-0.30;82.80;;;;;;5093812;28;19921;-35
2022/12/13 00:06:03;;;;;;;;;;;-0.30;82.80;;;;;;5093868;28;19908;-34
2022/12/13 00:08:28;;;;;;;;;;;-0.30;82.80;;;;;;5094134;28;20015;-34
2022/12/13 00:10:58;;;;;;;;;;;-0.30;82.80;;;;;;5093878;28;20366;-34
2022/12/13 00:13:23;;;;;;;;;;;-0.30;82.70;;;;;;5094325;28;19908;-35
2022/12/13 00:15:56;;;;;;;;;;;-0.30;82.80;;;;;;5093622;28;20283;-33
2022/12/13 00:18:22;;;;;;;;;;;-0.40;82.70;;;;;;5093879;28;19915;-34
2022/12/13 00:20:47;;;;;;;;;;;-0.40;82.70;;;;;;5093681;28;20411;-33
2022/12/13 00:23:13;;;;;;;;;;;-0.40;82.80;;;;;;5093550;28;19923;-34
2022/12/13 00:25:38;;;;;;;;;;;-0.40;82.80;;;;;;5093447;28;19955;-34
2022/12/13 00:28:03;;;;;;;;;;;-0.40;82.90;;;;;;5093837;28;19912;-39
2022/12/13 00:30:30;;;;;;;;;;;-0.40;82.90;;;;;;5093574;28;19908;-33
2022/12/13 00:32:56;;;;;;;;;;;-0.40;82.90;;;;;;5093380;28;19962;-34
2022/12/13 00:35:21;;;;;;;;;;;-0.40;82.90;;;;;;5093573;28;19931;-34
2022/12/13 00:37:47;;;;;;;;;;;-0.40;82.80;;;;;;5093180;28;20228;-32
2022/12/13 00:40:12;;;;;;;;;;;-0.40;82.80;;;;;;5093302;28;19952;-34
2022/12/13 00:42:38;;;;;;;;;;;-0.40;82.80;;;;;;5093145;28;20359;-34
2022/12/13 00:45:03;;;;;;;;;;;-0.40;82.90;;;;;;5093352;28;19977;-34
2022/12/13 00:47:29;;;;;;;;;;;-0.50;82.80;;;;;;5093110;28;19909;-34
2022/12/13 00:49:54;;;;;;;;;;;-0.50;82.90;;;;;;5093134;28;19930;-34
2022/12/13 00:52:20;;;;;;;;;;;-0.40;82.90;;;;;;5093002;28;19908;-34
2022/12/13 00:54:45;;;;;;;;;;;-0.50;83.50;;;;;;5093139;28;19908;-35
2022/12/13 00:57:11;;;;;;;;;;;-0.50;82.90;;;;;;5093016;28;19955;-35
2022/12/13 00:59:36;;;;;;;;;;;-0.50;82.90;;;;;;5093333;28;20328;-35
2022/12/13 01:02:02;;;;;;;;;;;-0.60;83.00;;;;;;5092796;28;19912;-37
2022/12/13 01:04:27;;;;;;;;;;;-0.60;83.00;;;;;;5092853;28;19927;-33
2022/12/13 01:06:54;;;;;;;;;;;-0.60;83.10;;;;;;5092421;28;19908;-37
2022/12/13 01:09:21;;;;;;;;;;;-0.60;83.00;;;;;;5091718;28;19966;-34
2022/12/13 01:11:47;;;;;;;;;;;-0.60;83.10;;;;;;5092970;28;20370;-34
2022/12/13 01:14:12;;;;;;;;;;;-0.50;83.10;;;;;;5092484;28;20336;-35
2022/12/13 01:16:38;;;;;;;;;;;-0.50;83.10;;;;;;5092483;28;20046;-34
2022/12/13 01:19:04;;;;;;;;;;;-0.50;83.10;;;;;;5092453;28;19980;-35
2022/12/13 01:21:29;;;;;;;;;;;-0.50;83.00;;;;;;5092709;28;19909;-34
2022/12/13 01:23:58;;;;;;;;;;;-0.60;83.00;;;;;;5092707;28;20003;-34
2022/12/13 01:26:24;;;;;;;;;;;-0.60;82.90;;;;;;5092409;28;19912;-35
2022/12/13 01:28:49;;;;;;;;;;;-0.60;83.00;;;;;;5092468;28;19915;-35
2022/12/13 01:31:17;;;;;;;;;;;-0.60;83.10;;;;;;5092666;28;20281;-35
2022/12/13 01:33:42;;;;;;;;;;;-0.70;83.10;;;;;;5092146;28;20252;-34
2022/12/13 01:36:15;;;;;;;;;;;-0.70;83.10;;;;;;5092048;28;19915;-35
2022/12/13 01:38:41;;;;;;;;;;;-0.60;83.20;;;;;;5091947;28;19931;-34
2022/12/13 01:41:06;;;;;;;;;;;-0.70;83.20;;;;;;5090670;28;19908;-35
2022/12/13 01:43:35;;;;;;;;;;;-0.60;83.20;;;;;;5091992;28;19919;-35
2022/12/13 01:46:00;;;;;;;;;;;-0.70;83.10;;;;;;5092181;28;19915;-34
2022/12/13 01:48:28;;;;;;;;;;;-0.70;83.10;;;;;;5092198;28;19908;-34
2022/12/13 01:50:55;;;;;;;;;;;-0.70;83.10;;;;;;5092419;28;19915;-37
2022/12/13 01:53:23;;;;;;;;;;;-0.70;83.10;;;;;;5092534;28;19912;-35
2022/12/13 01:55:50;;;;;;;;;;;-0.70;83.10;;;;;;5092403;28;19916;-35
2022/12/13 01:58:16;;;;;;;;;;;-0.70;83.10;;;;;;5092423;28;19908;-34
2022/12/13 02:00:42;;;;;;;;;;;-0.70;83.10;;;;;;5090791;28;19931;-34
2022/12/13 02:03:08;;;;;;;;;;;-0.70;83.00;;;;;;5091441;28;19928;-34
2022/12/13 02:05:40;;;;;;;;;;;-0.70;83.00;;;;;;5090388;28;19912;-34
2022/12/13 02:08:06;;;;;;;;;;;-0.80;83.00;;;;;;5092274;28;20369;-34
2022/12/13 02:10:32;;;;;;;;;;;-0.80;83.10;;;;;;5091805;28;19916;-34
2022/12/13 02:12:58;;;;;;;;;;;-0.80;83.10;;;;;;5091858;28;20002;-34
2022/12/13 02:15:27;;;;;;;;;;;-0.80;83.20;;;;;;5092171;28;19912;-45
2022/12/13 02:17:58;;;;;;;;;;;-0.80;83.20;;;;;;5090959;28;19913;-34
2022/12/13 02:20:39;;;;;;;;;;;-0.80;83.20;;;;;;5091898;28;20379;-35
2022/12/13 02:23:05;;;;;;;;;;;-0.80;83.20;;;;;;5091932;28;20458;-35
2022/12/13 02:25:49;;;;;;;;;;;-0.90;83.00;;;;;;5091708;28;19908;-33
2022/12/13 02:28:31;;;;;;;;;;;-0.90;83.10;;;;;;5091550;28;20025;-35
2022/12/13 02:31:06;;;;;;;;;;;-0.90;83.20;;;;;;5091526;28;19916;-34
2022/12/13 02:33:38;;;;;;;;;;;-0.90;83.10;;;;;;5091449;28;19931;-35
2022/12/13 02:36:18;;;;;;;;;;;-0.90;83.20;;;;;;5091813;28;19908;-34
2022/12/13 02:38:49;;;;;;;;;;;-0.90;83.10;;;;;;5091488;28;19984;-35
2022/12/13 02:41:18;;;;;;;;;;;-0.90;83.20;;;;;;5091884;28;19909;-35
2022/12/13 02:43:49;;;;;;;;;;;-0.90;83.10;;;;;;5089849;28;19916;-35
2022/12/13 02:46:17;;;;;;;;;;;-0.90;83.20;;;;;;5091213;28;19960;-35
2022/12/13 02:48:44;;;;;;;;;;;-0.90;83.20;;;;;;5091223;28;19908;-34
2022/12/13 02:51:10;;;;;;;;;;;-0.90;83.10;;;;;;5091201;28;20287;-34
2022/12/13 02:53:38;;;;;;;;;;;-0.90;83.20;;;;;;5091509;28;20051;-35
2022/12/13 02:56:04;;;;;;;;;;;-1.00;83.20;;;;;;5091456;28;20368;-35
2022/12/13 02:58:32;;;;;;;;;;;-1.00;83.20;;;;;;5090969;28;19955;-34
2022/12/13 03:01:12;;;;;;;;;;;-1.00;83.20;;;;;;5091193;28;19927;-35
2022/12/13 03:03:47;;;;;;;;;;;-1.00;83.20;;;;;;5090929;28;19955;-35
2022/12/13 03:06:37;;;;;;;;;;;-1.00;83.20;;;;;;5091269;28;19908;-34
2022/12/13 03:09:23;;;;;;;;;;;-0.90;83.20;;;;;;5091014;28;19999;-35
2022/12/13 03:14:35;;;;;;;;;;;-1.00;83.10;;;;;;5090796;28;19995;-35
2022/12/13 03:17:01;;;;;;;;;;;-1.00;83.10;;;;;;5089757;28;19908;-35
2022/12/13 03:19:27;;;;;;;;;;;-1.00;83.10;;;;;;5090931;28;19909;-34
2022/12/13 03:21:53;;;;;;;;;;;-1.00;83.20;;;;;;5091028;28;19909;-35
2022/12/13 03:24:19;;;;;;;;;;;-1.00;83.20;;;;;;5091177;28;19912;-34
2022/12/13 03:26:46;;;;;;;;;;;-1.10;83.20;;;;;;5091033;28;19973;-35
2022/12/13 03:29:11;;;;;;;;;;;-1.10;83.30;;;;;;5092407;28;19934;-35
2022/12/13 03:31:37;;;;;;;;;;;-1.10;83.20;;;;;;5094667;28;19912;-35
2022/12/13 03:34:02;;;;;;;;;;;-1.10;83.30;;;;;;5094744;28;19999;-35
2022/12/13 03:36:28;;;;;;;;;;;-1.10;83.30;;;;;;5094634;28;19908;-33
2022/12/13 03:38:54;;;;;;;;;;;-1.10;83.40;;;;;;5094575;28;19908;-34
2022/12/13 03:41:21;;;;;;;;;;;-1.10;83.40;;;;;;5092988;28;20355;-35
2022/12/13 03:43:47;;;;;;;;;;;-1.10;83.40;;;;;;5094574;28;19912;-34
2022/12/13 03:46:13;;;;;;;;;;;-1.10;83.40;;;;;;5094400;28;20359;-34
2022/12/13 03:48:38;;;;;;;;;;;-1.10;83.40;;;;;;5076211;28;20020;-34
2022/12/13 03:51:04;;;;;;;;;;;-1.10;83.40;;;;;;5094594;28;19965;-35
2022/12/13 03:53:30;;;;;;;;;;;-1.10;83.40;;;;;;5094151;28;19922;-34
2022/12/13 03:55:55;;;;;;;;;;;-1.10;83.40;;;;;;5094040;28;20010;-35
2022/12/13 03:58:21;;;;;;;;;;;-1.10;83.40;;;;;;5094012;28;19916;-34
2022/12/13 04:00:46;;;;;;;;;;;-1.10;83.40;;;;;;5094017;28;19931;-34
2022/12/13 04:03:12;;;;;;;;;;;-1.10;83.40;;;;;;5093692;28;19920;-34
2022/12/13 04:05:37;;;;;;;;;;;-1.20;83.30;;;;;;5094303;28;20064;-34
2022/12/13 04:08:03;;;;;;;;;;;-1.20;83.40;;;;;;5094070;28;19916;-45
2022/12/13 04:10:28;;;;;;;;;;;-1.20;83.40;;;;;;5094365;28;19916;-34
2022/12/13 04:15:38;;;;;;;;;;;-1.20;83.30;;;;;;5093866;28;19973;-34
2022/12/13 04:18:04;;;;;;;;;;;-1.20;83.30;;;;;;5093828;28;20431;-34
2022/12/13 04:20:30;;;;;;;;;;;-1.20;83.40;;;;;;5093638;28;19908;-33
2022/12/13 04:22:55;;;;;;;;;;;-1.20;83.30;;;;;;5093931;28;19930;-33
2022/12/13 04:25:21;;;;;;;;;;;-1.30;83.30;;;;;;5093774;28;19923;-34
2022/12/13 04:27:47;;;;;;;;;;;-1.30;83.30;;;;;;5093826;28;19915;-33
2022/12/13 04:30:12;;;;;;;;;;;-1.20;83.40;;;;;;5093505;28;20360;-34
2022/12/13 04:32:38;;;;;;;;;;;-1.30;83.20;;;;;;5093507;28;19908;-34
2022/12/13 04:35:03;;;;;;;;;;;-1.30;83.30;;;;;;5093682;28;20006;-33
2022/12/13 04:37:29;;;;;;;;;;;-1.30;83.30;;;;;;5093233;28;19954;-33
2022/12/13 04:39:55;;;;;;;;;;;-1.30;83.30;;;;;;5092842;28;20368;-34
2022/12/13 04:42:20;;;;;;;;;;;-1.30;83.30;;;;;;5092959;28;19956;-34
2022/12/13 04:44:48;;;;;;;;;;;-1.40;83.30;;;;;;5093187;28;20385;-34
2022/12/13 04:47:14;;;;;;;;;;;-1.40;83.30;;;;;;5091749;28;19958;-33
2022/12/13 04:49:39;;;;;;;;;;;-1.40;83.40;;;;;;5093359;28;20391;-33
2022/12/13 04:52:05;;;;;;;;;;;-1.40;83.40;;;;;;5093527;28;19931;-36
2022/12/13 04:54:31;;;;;;;;;;;-1.40;83.40;;;;;;5093110;28;20010;-34
2022/12/13 04:56:57;;;;;;;;;;;-1.40;83.40;;;;;;5093136;28;19909;-33
2022/12/13 04:59:22;;;;;;;;;;;-1.40;83.40;;;;;;5092996;28;19908;-33
2022/12/13 05:01:48;;;;;;;;;;;-1.40;83.30;;;;;;5093094;28;19990;-33
2022/12/13 05:04:13;;;;;;;;;;;-1.40;83.30;;;;;;5092549;28;19920;-34
2022/12/13 05:06:39;;;;;;;;;;;-1.40;83.40;;;;;;5092518;28;20486;-34
2022/12/13 05:09:04;;;;;;;;;;;-1.40;83.40;;;;;;5092930;28;19912;-34
2022/12/13 05:11:30;;;;;;;;;;;-1.40;83.40;;;;;;5092535;28;19951;-32
2022/12/13 05:13:55;;;;;;;;;;;-1.40;83.40;;;;;;5092735;28;19909;-34
2022/12/13 05:16:20;;;;;;;;;;;-1.40;83.40;;;;;;5092629;28;19965;-34
2022/12/13 05:18:46;;;;;;;;;;;-1.40;83.40;;;;;;5092538;28;20375;-34
2022/12/13 05:21:11;;;;;;;;;;;-1.40;83.40;;;;;;5092440;28;20275;-33
2022/12/13 05:23:37;;;;;;;;;;;-1.40;83.40;;;;;;5092529;28;19992;-34
2022/12/13 05:26:03;;;;;;;;;;;-1.40;83.40;;;;;;5092751;28;19908;-33
2022/12/13 05:28:29;;;;;;;;;;;-1.40;83.40;;;;;;5092723;28;19908;-33
2022/12/13 05:30:55;;;;;;;;;;;-1.40;83.40;;;;;;5092595;28;19919;-34
2022/12/13 05:33:21;;;;;;;;;;;-1.50;83.90;;;;;;5092157;28;20475;-34
2022/12/13 05:35:46;;;;;;;;;;;-1.50;83.40;;;;;;5092147;28;20007;-34
2022/12/13 05:38:12;;;;;;;;;;;-1.50;83.40;;;;;;5091904;28;20283;-33
2022/12/13 05:40:37;;;;;;;;;;;-1.50;83.40;;;;;;5092094;28;19908;-33
2022/12/13 05:43:03;;;;;;;;;;;-1.50;83.40;;;;;;5092333;28;19915;-34
2022/12/13 05:45:29;;;;;;;;;;;-1.50;83.50;;;;;;5092091;28;19992;-34
2022/12/13 05:47:55;;;;;;;;;;;-1.50;83.60;;;;;;5092088;28;19945;-34
2022/12/13 05:50:23;;;;;;;;;;;-1.50;83.50;;;;;;5092287;28;20333;-32
2022/12/13 05:52:49;;;;;;;;;;;-1.50;83.50;;;;;;5091969;28;19908;-33
2022/12/13 05:55:14;;;;;;;;;;;-1.50;83.60;;;;;;5092216;28;20007;-34
2022/12/13 05:57:39;;;;;;;;;;;-1.60;83.50;;;;;;5091996;28;19920;-33
2022/12/13 06:00:06;;;;;;;;;;;-1.50;83.60;;;;;;5091818;28;19919;-34
2022/12/13 06:02:36;;;;;;;;;;;-1.60;83.50;;;;;;5091957;28;20011;-34
2022/12/13 06:05:01;;;;;;;;;;;-1.60;83.50;;;;;;5091842;28;19954;-34
2022/12/13 06:07:27;;;;;;;;;;;-1.60;83.50;;;;;;5091978;28;19940;-34
2022/12/13 06:09:52;;;;;;;;;;;-1.60;83.50;;;;;;5092066;28;19915;-32
2022/12/13 06:12:18;;;;;;;;;;;-1.60;83.50;;;;;;5091908;28;19908;-35
2022/12/13 06:14:43;;;;;;;;;;;-1.50;83.50;;;;;;5091881;28;19912;-34
2022/12/13 06:17:09;;;;;;;;;;;-1.50;83.50;;;;;;5091766;28;19909;-35
2022/12/13 06:19:34;;;;;;;;;;;-1.50;83.50;;;;;;5092264;28;19908;-35
2022/12/13 06:21:59;;;;;;;;;;;-1.50;83.50;;;;;;5091740;28;19908;-34
2022/12/13 06:24:26;;;;;;;;;;;-1.50;83.50;;;;;;5091582;28;19916;-35
2022/12/13 06:26:52;;;;;;;;;;;-1.50;83.50;;;;;;5091814;28;20002;-34
2022/12/13 06:29:18;;;;;;;;;;;-1.50;83.50;;;;;;5091528;28;20028;-35
2022/12/13 06:31:43;;;;;;;;;;;-1.50;83.50;;;;;;5091517;28;19915;-34
2022/12/13 06:34:09;;;;;;;;;;;-1.50;83.60;;;;;;5091626;28;19908;-34
2022/12/13 06:36:35;;;;;;;;;;;-1.50;83.60;;;;;;5091836;28;19908;-34
2022/12/13 06:39:01;;;;;;;;;;;-1.50;83.60;;;;;;5091828;28;20444;-34
2022/12/13 06:41:26;;;;;;;;;;;-1.50;83.60;;;;;;5092273;28;20348;-34
2022/12/13 06:43:52;;;;;;;;;;;-1.50;83.60;;;;;;5091811;28;20014;-32
2022/12/13 06:46:17;;;;;;;;;;;-1.50;83.60;;;;;;5091812;28;20394;-34
2022/12/13 06:48:43;;;;;;;;;;;-1.50;83.60;;;;;;5092014;28;19973;-33
2022/12/13 06:51:09;;;;;;;;;;;-1.50;83.60;;;;;;5092136;28;19915;-40
2022/12/13 06:53:36;;;;;;;;;;;-1.50;83.70;;;;;;5091418;28;20006;-34
2022/12/13 06:56:09;;;;;;;;;;;-1.50;83.70;;;;;;5091467;28;19912;-33
2022/12/13 06:58:35;;;;;;;;;;;-1.60;83.70;;;;;;5091283;28;19914;-34
2022/12/13 07:01:01;;;;;;;;;;;-1.60;83.60;;;;;;5091261;28;19908;-32
2022/12/13 07:03:28;;;;;;;;;;;-1.50;83.70;;;;;;5091498;28;19920;-35
2022/12/13 07:05:53;;;;;;;;;;;-1.50;83.80;;;;;;5095361;28;19928;-35
2022/12/13 07:08:19;;;;;;;;;;;-1.60;83.80;;;;;;5095468;28;19908;-34
2022/12/13 07:10:44;;;;;;;;;;;-1.60;83.80;;;;;;5095378;28;19908;-34
2022/12/13 07:13:10;;;;;;;;;;;-1.60;83.90;;;;;;5095543;28;20280;-33
2022/12/13 07:15:35;;;;;;;;;;;-1.60;83.90;;;;;;5095325;28;19908;-34
2022/12/13 07:18:01;;;;;;;;;;;-1.60;84.00;;;;;;5095644;28;19915;-35
2022/12/13 07:20:26;;;;;;;;;;;-1.60;84.00;;;;;;5095577;28;20355;-34
2022/12/13 07:22:55;;;;;;;;;;;-1.60;84.00;;;;;;5095251;28;19915;-34
2022/12/13 07:25:21;;;;;;;;;;;-1.60;84.00;;;;;;5095222;28;19919;-33
2022/12/13 07:27:46;;;;;;;;;;;-1.60;84.00;;;;;;5095299;28;19908;-34
2022/12/13 07:30:12;;;;;;;;;;;-1.60;84.00;;;;;;5094966;28;20359;-33
2022/12/13 07:32:37;;;;;;;;;;;-1.60;84.00;;;;;;5095035;28;20301;-34
2022/12/13 07:35:03;;;;;;;;;;;-1.60;84.00;;;;;;5094993;28;20356;-36
2022/12/13 07:37:28;;;;;;;;;;;-1.60;83.90;;;;;;5094944;28;19916;-33
2022/12/13 07:39:54;;;;;;;;;;;-1.60;83.90;;;;;;5094926;28;19912;-33
2022/12/13 07:42:19;;;;;;;;;;;-1.60;84.00;;;;;;5094903;28;19908;-32
2022/12/13 07:44:45;;;;;;;;;;;-1.60;84.00;;;;;;5094811;28;19923;-33
2022/12/13 07:47:10;;;;;;;;;;;-1.60;84.00;;;;;;5094914;28;19908;-34
2022/12/13 07:49:35;;;;;;;;;;;-1.60;84.00;;;;;;5095203;28;20010;-33
2022/12/13 07:52:01;;;;;;;;;;;-1.70;84.00;;;;;;5094765;28;19922;-33
2022/12/13 07:54:26;;;;;;;;;;;-1.70;84.00;;;;;;5094968;28;19918;-33
2022/12/13 07:56:52;;;;;;;;;;;-1.70;84.10;;;;;;5094814;28;19923;-33
2022/12/13 07:59:17;;;;;;;;;;;-1.70;84.10;;;;;;5094634;28;19994;-35
2022/12/13 08:01:43;;;;;;;;;;;-1.60;84.10;;;;;;5094501;28;19915;-33
2022/12/13 08:04:08;;;;;;;;;;;-1.60;84.10;;;;;;5092776;28;20019;-34
2022/12/13 08:06:35;;;;;;;;;;;-1.60;84.10;;;;;;5094248;28;19912;-33
2022/12/13 08:09:00;;;;;;;;;;;-1.60;84.00;;;;;;5093060;28;19915;-33
2022/12/13 08:11:26;;;;;;;;;;;-1.50;84.00;;;;;;5094649;28;19987;-33
2022/12/13 08:13:54;;;;;;;;;;;-1.50;84.00;;;;;;5094464;28;19916;-41
2022/12/13 08:16:20;;;;;;;;;;;-1.50;84.00;;;;;;5092912;28;19908;-33
2022/12/13 08:18:48;;;;;;;;;;;-1.50;83.90;;;;;;5094400;28;19954;-33
2022/12/13 08:21:14;;;;;;;;;;;-1.50;83.80;;;;;;5094027;28;19916;-33
2022/12/13 08:23:39;;;;;;;;;;;-1.40;83.90;;;;;;5093843;28;19912;-33
2022/12/13 08:26:05;;;;;;;;;;;-1.40;83.80;;;;;;5093915;28;19951;-33
2022/12/13 08:28:31;;;;;;;;;;;-1.40;83.80;;;;;;5093923;28;20368;-32
2022/12/13 08:31:15;;;;;;;;;;;-1.40;83.80;;;;;;5093901;28;20007;-33
2022/12/13 08:33:42;;;;;;;;;;;-1.20;83.80;;;;;;5093925;28;19908;-34
2022/12/13 08:36:08;;;;;;;;;;;-1.20;83.50;;;;;;5093866;28;19908;-35
2022/12/13 08:38:34;;;;;;;;;;;-1.10;83.40;;;;;;5093805;28;19973;-34
2022/12/13 08:40:59;;;;;;;;;;;-1.10;83.40;;;;;;5093998;28;19908;-33
2022/12/13 08:43:25;;;;;;;;;;;-1.10;83.40;;;;;;5093801;28;19912;-33
2022/12/13 08:45:50;;;;;;;;;;;-1.10;83.30;;;;;;5093899;28;20025;-35
2022/12/13 08:48:16;;;;;;;;;;;-1.10;83.30;;;;;;5093877;28;19915;-34
2022/12/13 08:50:41;;;;;;;;;;;-1.00;83.40;;;;;;5093877;28;20053;-34
2022/12/13 08:53:07;;;;;;;;;;;-1.00;83.30;;;;;;5093848;28;19908;-35
2022/12/13 08:55:32;;;;;;;;;;;-1.00;83.30;;;;;;5093839;28;20001;-34
2022/12/13 08:57:58;;;;;;;;;;;-0.90;83.30;;;;;;5093700;28;19969;-34
2022/12/13 09:00:23;;;;;;;;;;;-0.90;83.20;;;;;;5093429;28;19912;-34
2022/12/13 09:02:49;;;;;;;;;;;-0.90;83.10;;;;;;5093413;28;19916;-35
2022/12/13 09:05:15;;;;;;;;;;;-0.80;83.20;;;;;;5093221;28;20020;-36
2022/12/13 09:07:40;;;;;;;;;;;-0.80;83.20;;;;;;5093270;28;20338;-33
2022/12/13 09:10:07;;;;;;;;;;;-0.70;83.10;;;;;;5093453;28;19908;-34
2022/12/13 09:12:32;;;;;;;;;;;-0.70;83.10;;;;;;5093040;28;19908;-33
2022/12/13 09:14:57;;;;;;;;;;;-0.70;83.00;;;;;;5092992;28;20370;-35
2022/12/13 09:17:23;;;;;;;;;;;-0.60;83.00;;;;;;5093260;28;19916;-34
2022/12/13 09:19:48;;;;;;;;;;;-0.60;83.00;;;;;;5093048;28;19922;-35
2022/12/13 09:22:15;;;;;;;;;;;-0.60;82.90;;;;;;5092973;28;19934;-36
2022/12/13 09:24:40;;;;;;;;;;;-0.50;82.90;;;;;;5092833;28;19912;-33
2022/12/13 09:27:06;;;;;;;;;;;-0.50;82.90;;;;;;5092410;28;19954;-34
2022/12/13 09:29:32;;;;;;;;;;;-0.50;82.80;;;;;;5093012;28;19908;-35
2022/12/13 09:31:59;;;;;;;;;;;-0.40;82.80;;;;;;5092695;28;19908;-36
2022/12/13 09:34:24;;;;;;;;;;;-0.40;82.70;;;;;;5092698;28;20052;-35
2022/12/13 09:36:50;;;;;;;;;;;-0.40;82.60;;;;;;5092667;28;20007;-34
2022/12/13 09:39:15;;;;;;;;;;;-0.30;82.70;;;;;;5093049;28;20382;-34
2022/12/13 09:41:42;;;;;;;;;;;-0.30;82.60;;;;;;5092752;28;19915;-33
2022/12/13 09:44:15;;;;;;;;;;;-0.30;82.60;;;;;;5092464;28;19951;-34
2022/12/13 09:46:44;;;;;;;;;;;-0.20;82.50;;;;;;5092398;28;19955;-33
2022/12/13 09:49:16;;;;;;;;;;;-0.20;82.40;;;;;;5092406;28;19991;-35
2022/12/13 09:51:44;;;;;;;;;;;-0.20;82.30;;;;;;5092373;28;19908;-34
2022/12/13 09:54:13;;;;;;;;;;;-0.20;82.40;;;;;;5092443;28;19915;-34
2022/12/13 09:56:39;;;;;;;;;;;-0.10;82.40;;;;;;5092474;28;20417;-34
2022/12/13 09:59:04;;;;;;;;;;;-0.10;82.30;;;;;;5092174;28;19955;-33
2022/12/13 10:01:30;;;;;;;;;;;-0.10;82.30;;;;;;5092715;28;20347;-34
2022/12/13 10:03:58;;;;;;;;;;;-0.10;82.10;;;;;;5092004;28;19928;-34
2022/12/13 10:06:23;;;;;;;;;;;-0.10;82.20;;;;;;5092094;28;19908;-34
2022/12/13 10:08:52;;;;;;;;;;;-0.10;82.10;;;;;;5091662;28;20360;-33
2022/12/13 10:11:19;;;;;;;;;;;0.00;82.10;;;;;;5091970;28;20313;-34
2022/12/13 10:13:44;;;;;;;;;;;0.00;82.10;;;;;;5091947;28;20355;-34
2022/12/13 10:16:28;;;;;;;;;;;0.00;82.00;;;;;;5092070;28;19962;-32
2022/12/13 10:18:54;;;;;;;;;;;0.00;82.00;;;;;;5091958;28;19915;-34
2022/12/13 10:21:25;;;;;;;;;;;0.00;82.10;;;;;;5092118;28;19977;-35
2022/12/13 10:23:51;;;;;;;;;;;0.00;82.00;;;;;;5091948;28;19943;-32
2022/12/13 10:26:16;;;;;;;;;;;0.10;81.90;;;;;;5091703;28;20332;-36
2022/12/13 10:28:42;;;;;;;;;;;0.10;81.90;;;;;;5091887;28;20014;-31
2022/12/13 10:31:14;;;;;;;;;;;0.10;81.80;;;;;;5092153;28;19908;-37
2022/12/13 10:33:43;;;;;;;;;;;0.10;81.80;;;;;;5090598;28;20232;-35
2022/12/13 10:36:28;;;;;;;;;;;0.00;81.70;;;;;;5091957;28;19908;-36
2022/12/13 10:38:54;;;;;;;;;;;0.10;81.80;;;;;;5090974;28;20454;-40
2022/12/13 10:41:28;;;;;;;;;;;0.00;81.70;;;;;;5091978;28;20003;-36
2022/12/13 10:44:07;;;;;;;;;;;0.10;81.80;;;;;;5091489;28;19957;-39
2022/12/13 10:46:32;;;;;;;;;;;0.10;81.80;;;;;;5090086;28;19927;-34
2022/12/13 10:48:58;;;;;;;;;;;0.10;82.30;;;;;;5091810;28;19950;-36
2022/12/13 10:51:24;;;;;;;;;;;0.20;81.70;;;;;;5091558;28;20279;-34
2022/12/13 10:53:51;;;;;;;;;;;0.20;81.60;;;;;;5091508;28;19926;-36
2022/12/13 10:56:17;;;;;;;;;;;0.20;81.60;;;;;;5091408;28;19908;-34
2022/12/13 10:58:45;;;;;;;;;;;0.30;81.70;;;;;;5091521;28;20363;-34
2022/12/13 11:01:16;;;;;;;;;;;0.30;81.70;;;;;;5091443;28;20011;-35
2022/12/13 11:03:51;;;;;;;;;;;0.40;81.60;;;;;;5091450;28;19920;-34
2022/12/13 11:06:17;;;;;;;;;;;0.50;81.50;;;;;;5091555;28;19912;-34
2022/12/13 11:08:43;;;;;;;;;;;0.50;81.30;;;;;;5091583;28;20363;-34
2022/12/13 11:11:09;;;;;;;;;;;0.60;81.20;;;;;;5091512;28;19913;-34
2022/12/13 11:13:35;;;;;;;;;;;0.60;81.20;;;;;;5091491;28;20466;-34
2022/12/13 11:16:01;;;;;;;;;;;0.50;81.10;;;;;;5091519;28;20007;-34
2022/12/13 11:18:29;;;;;;;;;;;0.60;81.20;;;;;;5090085;28;20371;-36
2022/12/13 11:21:01;;;;;;;;;;;0.60;81.10;;;;;;5091407;28;20346;-34
2022/12/13 11:23:27;;;;;;;;;;;0.60;81.10;;;;;;5091069;28;19920;-34
2022/12/13 11:25:54;;;;;;;;;;;0.70;81.10;;;;;;5091278;28;19919;-34
2022/12/13 11:28:38;;;;;;;;;;;0.80;81.00;;;;;;5091354;28;20257;-34
2022/12/13 11:31:07;;;;;;;;;;;0.80;81.00;;;;;;5091224;28;20010;-33
2022/12/13 11:33:41;;;;;;;;;;;0.90;80.80;;;;;;5091184;28;19935;-33
2022/12/13 11:36:21;;;;;;;;;;;0.90;80.80;;;;;;5091116;28;20347;-34
2022/12/13 11:38:47;;;;;;;;;;;0.90;80.70;;;;;;5091143;28;19912;-33
2022/12/13 11:41:16;;;;;;;;;;;0.90;80.70;;;;;;5091120;28;20339;-33
2022/12/13 11:43:45;;;;;;;;;;;0.90;80.70;;;;;;5091013;28;19951;-32
2022/12/13 11:46:16;;;;;;;;;;;0.90;80.60;;;;;;5091107;28;19998;-34
2022/12/13 11:48:45;;;;;;;;;;;0.90;80.70;;;;;;5091013;28;19913;-36
2022/12/13 11:51:12;;;;;;;;;;;0.90;80.70;;;;;;5093953;28;20343;-34
2022/12/13 11:53:48;;;;;;;;;;;0.90;80.80;;;;;;5094696;28;20444;-34
2022/12/13 11:56:18;;;;;;;;;;;0.90;80.80;;;;;;5094623;28;19912;-32
2022/12/13 11:58:49;;;;;;;;;;;1.00;80.80;;;;;;5094833;28;20057;-33
2022/12/13 12:01:16;;;;;;;;;;;1.00;80.70;;;;;;5094744;28;19919;-34
2022/12/13 12:03:48;;;;;;;;;;;1.00;80.50;;;;;;5094260;28;20444;-33
2022/12/13 12:06:20;;;;;;;;;;;0.90;80.40;;;;;;5094591;28;19912;-33
2022/12/13 12:08:56;;;;;;;;;;;0.90;80.50;;;;;;5094349;28;19946;-36
2022/12/13 12:11:33;;;;;;;;;;;0.90;80.50;;;;;;5094331;28;20272;-33
2022/12/13 12:14:09;;;;;;;;;;;0.90;80.60;;;;;;5094515;28;19912;-34
2022/12/13 12:16:41;;;;;;;;;;;0.90;80.60;;;;;;5094573;28;19916;-33
2022/12/13 12:19:14;;;;;;;;;;;0.90;80.60;;;;;;5094345;28;20010;-34
2022/12/13 12:22:12;;;;;;;;;;;0.90;80.50;;;;;;5094638;28;20364;-34
2022/12/13 12:24:46;;;;;;;;;;;0.90;80.50;;;;;;5070790;28;20379;-35
2022/12/13 12:27:19;;;;;;;;;;;0.90;80.50;;;;;;5094062;28;20317;-33
2022/12/13 12:29:53;;;;;;;;;;;0.90;80.40;;;;;;5094098;28;19922;-34
2022/12/13 12:32:27;;;;;;;;;;;0.90;80.40;;;;;;5094121;28;19912;-35
2022/12/13 12:35:06;;;;;;;;;;;1.00;80.40;;;;;;5094096;28;19923;-35
2022/12/13 12:37:43;;;;;;;;;;;0.90;80.40;;;;;;5093953;28;20340;-34
2022/12/13 12:40:11;;;;;;;;;;;1.00;80.30;;;;;;5094068;28;19912;-35
2022/12/13 12:42:46;;;;;;;;;;;0.90;80.20;;;;;;5093826;28;19916;-34
2022/12/13 12:45:30;;;;;;;;;;;0.90;80.20;;;;;;5093750;28;20006;-34
2022/12/13 12:48:19;;;;;;;;;;;0.90;80.20;;;;;;5094020;28;19919;-33
2022/12/13 12:50:49;;;;;;;;;;;0.80;80.20;;;;;;5093914;28;19969;-33
2022/12/13 12:53:14;;;;;;;;;;;0.80;80.30;;;;;;5092307;28;19916;-34
2022/12/13 12:55:47;;;;;;;;;;;0.80;80.20;;;;;;5093947;28;19961;-34
2022/12/13 12:58:14;;;;;;;;;;;0.80;80.30;;;;;;5093574;28;19912;-33
2022/12/13 13:01:02;;;;;;;;;;;0.90;80.20;;;;;;5093495;28;19912;-35
2022/12/13 13:03:29;;;;;;;;;;;0.90;80.10;;;;;;5087180;28;19971;-34
2022/12/13 13:05:58;;;;;;;;;;;0.80;80.00;;;;;;5093163;28;20348;-36
2022/12/13 13:08:25;;;;;;;;;;;0.90;80.10;;;;;;5093430;28;20397;-34
2022/12/13 13:10:51;;;;;;;;;;;0.90;80.10;;;;;;5093335;28;19908;-36
2022/12/13 13:13:32;;;;;;;;;;;0.90;80.00;;;;;;5093265;28;19908;-34
2022/12/13 13:15:58;;;;;;;;;;;1.00;80.00;;;;;;5093208;28;20002;-35
2022/12/13 13:18:44;;;;;;;;;;;1.10;79.80;;;;;;5093297;28;19991;-34
2022/12/13 13:21:22;;;;;;;;;;;1.10;79.60;;;;;;5085565;28;20364;-36
2022/12/13 13:24:06;;;;;;;;;;;1.10;79.60;;;;;;5092991;28;19935;-34
2022/12/13 13:26:32;;;;;;;;;;;1.10;79.60;;;;;;5092969;28;19908;-35
2022/12/13 13:29:16;;;;;;;;;;;1.10;79.60;;;;;;5093050;28;20441;-35
2022/12/13 13:31:57;;;;;;;;;;;1.10;79.60;;;;;;5093211;28;19999;-33
2022/12/13 13:34:26;;;;;;;;;;;1.00;79.60;;;;;;5093052;28;19908;-35
2022/12/13 13:36:54;;;;;;;;;;;1.00;79.70;;;;;;5092749;28;19915;-34
2022/12/13 13:39:35;;;;;;;;;;;1.00;79.70;;;;;;5092717;28;19908;-35
2022/12/13 13:42:06;;;;;;;;;;;1.00;79.80;;;;;;5093011;28;19915;-33
2022/12/13 13:44:34;;;;;;;;;;;0.90;79.70;;;;;;5092646;28;19912;-34
2022/12/13 13:47:29;;;;;;;;;;;0.90;79.70;;;;;;5092749;28;19908;-35
2022/12/13 13:50:07;;;;;;;;;;;0.90;79.80;;;;;;5083634;28;19911;-33
2022/12/13 13:52:44;;;;;;;;;;;0.80;79.80;;;;;;5092570;28;19950;-36
2022/12/13 13:55:09;;;;;;;;;;;0.80;79.80;;;;;;5092760;28;19951;-36
2022/12/13 13:57:47;;;;;;;;;;;0.80;79.90;;;;;;5092524;28;19950;-33
2022/12/13 14:00:30;;;;;;;;;;;0.80;79.90;;;;;;5092627;28;19908;-35
2022/12/13 14:02:56;;;;;;;;;;;0.80;79.90;;;;;;5092181;28;19920;-34
2022/12/13 14:05:40;;;;;;;;;;;0.80;79.90;;;;;;5092280;28;19964;-35
2022/12/13 14:08:14;;;;;;;;;;;0.80;79.90;;;;;;5092280;28;19974;-36
2022/12/13 14:10:49;;;;;;;;;;;0.80;79.80;;;;;;5092306;28;19908;-34
2022/12/13 14:13:33;;;;;;;;;;;0.80;79.80;;;;;;5092049;28;19912;-35
2022/12/13 14:16:01;;;;;;;;;;;0.90;79.90;;;;;;5092018;28;19908;-36
2022/12/13 14:18:26;;;;;;;;;;;0.90;79.80;;;;;;5092067;28;19908;-33
2022/12/13 14:20:52;;;;;;;;;;;0.80;79.70;;;;;;5092353;28;19909;-34
2022/12/13 14:23:17;;;;;;;;;;;0.90;79.70;;;;;;5091812;28;19961;-33
2022/12/13 14:26:05;;;;;;;;;;;0.90;79.70;;;;;;5092067;28;19915;-33
2022/12/13 14:28:43;;;;;;;;;;;0.90;79.70;;;;;;5090610;28;19908;-34
2022/12/13 14:31:13;;;;;;;;;;;0.80;79.60;;;;;;5092012;28;19915;-35
2022/12/13 14:33:42;;;;;;;;;;;0.80;79.70;;;;;;5091857;28;19954;-34